createdAt,value
2023-01-13T00:03:24.216Z,8.14
2023-01-13T00:08:29.261Z,8.13
2023-01-13T00:13:35.285Z,8.07
2023-01-13T00:30:49.876Z,7.82
2023-01-13T00:35:57.705Z,7.78
2023-01-13T00:41:03.096Z,7.74
2023-01-13T00:46:10.386Z,7.77
2023-01-13T00:51:15.913Z,7.68
2023-01-13T00:56:38.451Z,7.74
2023-01-13T01:01:44.782Z,7.81
2023-01-13T01:06:48.631Z,7.74
2023-01-13T01:11:52.376Z,7.74
2023-01-13T01:16:57.438Z,7.67
2023-01-13T01:22:01.184Z,7.64
2023-01-13T01:27:05.023Z,7.67
2023-01-13T01:32:10.125Z,7.65
2023-01-13T01:37:14.225Z,7.65
2023-01-13T01:42:35.614Z,7.57
2023-01-13T01:47:42.014Z,7.53
2023-01-13T01:52:51.148Z,7.52
2023-01-13T01:57:59.709Z,7.51
2023-01-13T02:03:08.453Z,7.48
2023-01-13T02:08:15.087Z,7.45
2023-01-13T02:13:18.831Z,7.41
2023-01-13T02:18:39.176Z,7.40
2023-01-13T02:24:27.995Z,7.34
2023-01-13T02:30:09.605Z,7.18
2023-01-13T02:35:19.716Z,7.15
2023-01-13T02:40:27.378Z,7.21
2023-01-13T02:45:36.819Z,7.28
2023-01-13T02:50:45.536Z,7.24
2023-01-13T02:55:53.464Z,7.27
2023-01-13T03:00:58.843Z,7.28
2023-01-13T03:06:14.319Z,7.36
2023-01-13T03:11:20.799Z,7.33
2023-01-13T03:16:38.413Z,7.42
2023-01-13T03:21:49.674Z,7.55
2023-01-13T03:27:01.334Z,7.58
2023-01-13T03:32:11.727Z,7.65
2023-01-13T03:37:18.061Z,7.53
2023-01-13T03:42:24.820Z,7.56
2023-01-13T03:47:34.700Z,7.60
2023-01-13T03:52:43.117Z,7.55
2023-01-13T03:57:52.031Z,7.44
2023-01-13T04:03:02.520Z,7.41
2023-01-13T04:08:17.195Z,7.41
2023-01-13T04:13:24.208Z,7.33
2023-01-13T04:18:31.449Z,7.36
2023-01-13T04:23:35.436Z,7.31
2023-01-13T04:28:40.820Z,7.30
2023-01-13T04:33:45.912Z,7.26
2023-01-13T04:38:51.453Z,7.21
2023-01-13T04:43:55.194Z,7.12
2023-01-13T04:49:00.358Z,6.99
2023-01-13T04:54:04.229Z,6.92
2023-01-13T04:59:08.757Z,6.87
2023-01-13T05:04:15.584Z,6.84
2023-01-13T05:09:19.420Z,6.81
2023-01-13T05:14:40.721Z,6.80
2023-01-13T05:19:45.952Z,6.85
2023-01-13T05:25:07.210Z,6.89
2023-01-13T05:30:12.107Z,6.88
2023-01-13T05:35:17.649Z,6.87
2023-01-13T05:40:39.052Z,6.87
2023-01-13T05:45:42.980Z,6.90
2023-01-13T05:50:49.257Z,6.90
2023-01-13T05:55:53.558Z,6.85
2023-01-13T06:01:01.228Z,6.87
2023-01-13T06:06:08.916Z,6.87
2023-01-13T06:11:12.895Z,6.81
2023-01-13T08:20:01.602Z,6.95
2023-01-13T08:25:06.406Z,7.00
2023-01-13T08:30:11.422Z,7.05
2023-01-13T08:35:17.463Z,7.06
2023-01-13T08:40:22.347Z,7.20
2023-01-13T08:45:26.187Z,7.19
2023-01-13T08:50:31.387Z,7.25
2023-01-13T08:55:35.197Z,7.31
2023-01-13T09:00:38.975Z,7.37
2023-01-13T09:05:44.107Z,7.34
2023-01-13T09:10:47.929Z,7.38
2023-01-13T09:15:52.310Z,7.44
2023-01-13T09:20:59.801Z,7.46
2023-01-13T09:26:03.567Z,7.48
2023-01-13T09:31:07.459Z,7.54
2023-01-13T09:36:12.781Z,7.52
2023-01-13T09:41:34.957Z,7.52
2023-01-13T09:46:48.057Z,7.42
2023-01-13T09:51:59.308Z,7.45
2023-01-13T09:57:03.187Z,7.53
2023-01-13T10:02:32.330Z,7.53
2023-01-13T10:07:41.073Z,7.24
2023-01-13T10:13:05.882Z,7.11
2023-01-13T10:18:19.491Z,7.05
2023-01-13T10:23:50.519Z,6.98
2023-01-13T10:28:55.161Z,6.92
2023-01-13T10:34:00.613Z,6.92
2023-01-13T10:39:11.109Z,6.90
2023-01-13T10:44:17.615Z,6.89
2023-01-13T10:49:29.368Z,6.90
2023-01-13T10:54:35.992Z,6.86
2023-01-13T10:59:39.821Z,6.95
2023-01-13T11:04:46.225Z,6.98
2023-01-13T11:10:15.513Z,7.08
2023-01-13T11:15:23.181Z,7.20
2023-01-13T11:20:32.514Z,7.27
2023-01-13T11:25:43.065Z,7.33
2023-01-13T11:30:56.538Z,7.38
2023-01-13T11:36:07.582Z,7.42
2023-01-13T11:41:21.735Z,7.46
2023-01-13T11:46:28.283Z,7.48
2023-01-13T11:51:39.451Z,7.54
2023-01-13T11:57:09.309Z,7.54
2023-01-13T12:02:26.365Z,7.62
2023-01-13T12:07:40.315Z,7.73
2023-01-13T12:12:55.055Z,7.76
2023-01-13T12:18:15.184Z,7.74
2023-01-13T12:23:26.043Z,7.81
2023-01-13T12:28:44.049Z,7.81
2023-01-13T12:34:08.703Z,7.81
2023-01-13T12:39:25.044Z,7.81
2023-01-13T12:44:30.353Z,7.83
2023-01-13T12:49:36.305Z,7.87
2023-01-13T12:55:03.939Z,7.90
2023-01-13T13:00:17.160Z,7.88
2023-01-13T13:06:00.429Z,7.89
2023-01-13T13:11:40.257Z,7.98
2023-01-13T13:16:54.757Z,8.01
2023-01-13T13:22:37.546Z,8.03
2023-01-13T13:27:45.174Z,8.05
2023-01-13T13:33:03.783Z,8.02
2023-01-13T13:38:43.488Z,8.03
2023-01-13T13:44:04.741Z,8.06
2023-01-13T13:49:09.966Z,8.04
2023-01-13T13:54:17.608Z,8.09
2023-01-13T13:59:25.150Z,8.09
2023-01-13T14:04:32.286Z,8.03
2023-01-13T14:09:47.015Z,8.01
2023-01-13T14:14:51.751Z,7.99
2023-01-13T14:20:01.634Z,8.02
2023-01-13T14:25:27.931Z,8.02
2023-01-13T14:30:33.754Z,7.99
2023-01-13T14:35:38.873Z,8.01
2023-01-13T14:40:46.909Z,7.98
2023-01-13T14:45:59.311Z,7.99
2023-01-13T14:51:09.490Z,7.99
2023-01-13T14:56:51.377Z,7.97
2023-01-13T15:01:55.589Z,7.96
2023-01-13T15:07:02.303Z,7.91
2023-01-13T15:12:18.179Z,7.98
2023-01-13T15:17:21.915Z,7.98
2023-01-13T15:22:28.206Z,7.97
2023-01-13T15:27:32.445Z,7.97
2023-01-13T15:32:36.235Z,7.98
2023-01-13T15:37:41.846Z,7.99
2023-01-13T15:43:03.688Z,7.99
2023-01-13T15:48:07.493Z,8.03
2023-01-13T15:53:14.965Z,8.00
2023-01-13T15:58:21.588Z,8.03
2023-01-13T16:03:25.356Z,8.04
2023-01-13T16:08:34.199Z,8.06
2023-01-13T16:13:40.123Z,8.08
2023-01-13T16:18:43.836Z,8.07
2023-01-13T16:23:50.803Z,8.08
2023-01-13T16:28:56.463Z,8.10
2023-01-13T16:34:01.347Z,8.10
2023-01-13T16:39:20.285Z,8.09
2023-01-13T16:44:24.313Z,8.10
2023-01-13T16:49:28.143Z,8.10
2023-01-13T16:54:33.311Z,8.09
2023-01-13T16:59:37.092Z,8.07
2023-01-13T17:04:40.805Z,8.10
2023-01-13T17:09:45.912Z,8.07
2023-01-13T17:14:49.643Z,8.03
2023-01-13T17:19:54.528Z,7.97
2023-01-13T17:24:59.637Z,7.91
2023-01-13T17:30:03.446Z,7.88
2023-01-13T17:35:08.087Z,7.88
2023-01-13T17:40:14.232Z,7.89
2023-01-13T17:45:18.065Z,7.87
2023-01-13T17:50:21.826Z,7.92
2023-01-13T17:55:26.942Z,7.89
2023-01-13T18:00:30.658Z,7.91
2023-01-13T18:05:35.061Z,7.91
2023-01-13T18:10:40.135Z,8.00
2023-01-13T18:15:43.906Z,8.04
2023-01-13T18:21:05.303Z,8.01
2023-01-13T18:26:35.637Z,7.93
2023-01-13T18:31:39.364Z,7.95
2023-01-13T18:36:43.122Z,7.92
2023-01-13T18:42:05.871Z,7.87
2023-01-13T18:47:09.991Z,7.28
2023-01-13T18:52:13.933Z,7.15
2023-01-13T18:57:21.356Z,7.04
2023-01-13T19:02:26.402Z,6.95
2023-01-13T19:07:31.787Z,6.91
2023-01-13T19:12:36.907Z,6.94
2023-01-13T19:17:40.695Z,6.97
2023-01-13T19:22:46.178Z,6.95
2023-01-13T19:27:51.299Z,6.97
2023-01-13T19:32:55.060Z,6.97
2023-01-13T19:37:58.789Z,6.99
2023-01-13T19:43:21.498Z,7.04
2023-01-13T19:48:26.163Z,7.06
2023-01-13T19:53:30.919Z,7.04
2023-01-13T19:58:36.041Z,7.09
2023-01-13T20:03:39.825Z,7.11
2023-01-13T20:08:46.067Z,7.18
2023-01-13T20:13:52.141Z,7.17
2023-01-13T20:18:56.323Z,7.19
2023-01-13T20:24:00.107Z,7.24
2023-01-13T20:29:05.182Z,7.30
2023-01-13T20:34:09.603Z,7.30
2023-01-13T20:39:16.200Z,7.33
2023-01-13T20:44:21.306Z,7.34
2023-01-13T20:49:26.458Z,7.34
2023-01-13T20:54:30.297Z,7.42
2023-01-13T20:59:35.410Z,7.37
2023-01-13T21:04:39.136Z,7.31
2023-01-13T21:09:42.929Z,7.22
2023-01-13T21:15:05.596Z,7.15
2023-01-13T21:20:12.018Z,7.12
2023-01-13T21:25:16.598Z,7.13
2023-01-13T21:30:22.728Z,7.12
2023-01-13T21:35:26.495Z,7.02
2023-01-13T21:40:30.221Z,7.03
2023-01-13T21:45:52.945Z,6.97
2023-01-13T21:51:00.992Z,6.92
2023-01-13T21:56:05.122Z,6.91
2023-01-13T22:01:11.972Z,6.89
2023-01-13T22:06:15.964Z,6.88
2023-01-13T22:11:19.757Z,6.88
2023-01-13T22:16:25.060Z,6.88
2023-01-13T22:21:28.879Z,6.90
2023-01-13T22:26:32.708Z,6.87
2023-01-13T22:31:39.214Z,6.89
2023-01-13T22:36:43.006Z,6.89
2023-01-13T22:41:46.706Z,6.88
2023-01-13T22:46:51.911Z,6.81
2023-01-13T22:51:55.653Z,6.76
2023-01-13T22:56:59.530Z,6.72
2023-01-13T23:02:04.649Z,6.77
2023-01-13T23:07:08.341Z,6.72
2023-01-13T23:12:12.111Z,6.76
2023-01-13T23:17:17.209Z,6.76
2023-01-13T23:22:20.992Z,6.72
2023-01-13T23:27:24.767Z,6.66
2023-01-13T23:32:29.932Z,6.65
2023-01-13T23:37:34.270Z,6.61
2023-01-13T23:42:37.988Z,6.53
2023-01-13T23:47:43.339Z,6.52
2023-01-13T23:52:47.120Z,6.45
2023-01-13T23:57:51.065Z,6.38
